createdAt,value
2022-09-12T00:04:54.400Z,0.00
2022-09-12T00:09:55.279Z,0.00
2022-09-12T00:14:56.067Z,0.00
2022-09-12T00:19:56.841Z,0.00
2022-09-12T00:24:57.628Z,0.00
2022-09-12T00:29:58.440Z,0.00
2022-09-12T00:34:59.371Z,0.00
2022-09-12T00:40:00.333Z,0.00
2022-09-12T00:45:00.826Z,0.00
2022-09-12T00:50:01.021Z,0.00
2022-09-12T00:55:01.814Z,0.00
2022-09-12T01:00:03.047Z,0.00
2022-09-12T01:05:03.241Z,0.00
2022-09-12T01:10:03.982Z,0.00
2022-09-12T01:15:04.762Z,0.00
2022-09-12T01:20:05.782Z,0.00
2022-09-12T01:25:06.055Z,0.00
2022-09-12T01:30:06.786Z,0.00
2022-09-12T01:35:07.703Z,0.00
2022-09-12T01:40:08.984Z,0.00
2022-09-12T01:45:09.249Z,0.00
2022-09-12T01:50:10.180Z,0.00
2022-09-12T01:55:10.611Z,0.00
2022-09-12T02:00:10.957Z,0.00
2022-09-12T02:05:11.960Z,0.00
2022-09-12T02:10:12.623Z,0.00
2022-09-12T02:15:13.819Z,0.00
2022-09-12T02:20:21.340Z,0.00
2022-09-12T02:25:15.454Z,0.00
2022-09-12T02:30:15.162Z,0.00
2022-09-12T02:35:16.074Z,0.00
2022-09-12T02:40:18.418Z,0.00
2022-09-12T02:45:17.748Z,0.00
2022-09-12T02:50:18.032Z,0.00
2022-09-12T02:55:18.911Z,0.00
2022-09-12T03:00:20.397Z,0.00
2022-09-12T03:05:21.140Z,0.00
2022-09-12T03:10:22.654Z,0.00
2022-09-12T03:15:22.399Z,0.00
2022-09-12T03:20:31.597Z,0.00
2022-09-12T03:25:23.376Z,0.00
2022-09-12T03:30:32.227Z,0.00
2022-09-12T03:35:24.876Z,0.00
2022-09-12T03:40:25.668Z,0.00
2022-09-12T03:45:26.624Z,0.00
2022-09-12T03:50:26.946Z,0.00
2022-09-12T03:55:27.722Z,0.00
2022-09-12T04:00:28.490Z,0.00
2022-09-12T04:05:29.152Z,0.00
2022-09-12T04:10:29.874Z,0.00
2022-09-12T04:15:30.566Z,0.00
2022-09-12T04:20:31.227Z,0.00
2022-09-12T04:25:31.959Z,0.00
2022-09-12T04:30:32.676Z,0.00
2022-09-12T04:35:33.408Z,0.00
2022-09-12T04:40:34.196Z,5.62
2022-09-12T04:45:34.924Z,5.62
2022-09-12T04:50:35.594Z,11.25
2022-09-12T04:55:36.247Z,11.25
2022-09-12T05:00:36.953Z,16.88
2022-09-12T05:05:37.648Z,22.50
2022-09-12T05:10:38.368Z,28.12
2022-09-12T05:15:39.060Z,33.75
2022-09-12T05:20:39.723Z,39.38
2022-09-12T05:25:40.397Z,39.38
2022-09-12T05:30:41.076Z,45.00
2022-09-12T05:35:41.847Z,45.00
2022-09-12T05:40:42.585Z,45.00
2022-09-12T05:45:43.342Z,45.00
2022-09-12T05:50:44.017Z,50.62
2022-09-12T05:55:44.720Z,50.62
2022-09-12T06:00:45.423Z,56.25
2022-09-12T06:05:50.484Z,56.25
2022-09-12T06:10:46.831Z,61.88
2022-09-12T06:15:47.555Z,61.88
2022-09-12T06:20:48.239Z,67.50
2022-09-12T06:25:48.926Z,67.50
2022-09-12T06:30:49.667Z,73.12
2022-09-12T06:35:50.395Z,73.12
2022-09-12T06:40:51.087Z,78.75
2022-09-12T06:45:51.854Z,84.38
2022-09-12T06:50:52.502Z,84.38
2022-09-12T06:55:53.235Z,90.00
2022-09-12T07:00:58.529Z,95.62
2022-09-12T07:05:55.538Z,95.62
2022-09-12T07:10:55.231Z,101.25
2022-09-12T07:15:55.927Z,106.88
2022-09-12T07:20:56.716Z,106.88
2022-09-12T07:25:57.465Z,112.50
2022-09-12T07:30:58.195Z,112.50
2022-09-12T07:35:58.845Z,118.12
2022-09-12T07:40:59.528Z,123.75
2022-09-12T07:46:00.276Z,123.75
2022-09-12T07:51:00.958Z,129.38
2022-09-12T07:56:01.612Z,146.25
2022-09-12T08:01:02.464Z,157.50
2022-09-12T08:06:03.190Z,118.12
2022-09-12T08:11:03.940Z,185.62
2022-09-12T08:16:04.634Z,185.62
2022-09-12T08:21:05.505Z,191.25
2022-09-12T08:26:06.533Z,101.25
2022-09-12T08:31:06.788Z,146.25
2022-09-12T08:36:07.512Z,208.12
2022-09-12T08:41:08.193Z,253.12
2022-09-12T08:46:09.046Z,196.88
2022-09-12T08:51:09.779Z,118.12
2022-09-12T08:56:10.430Z,208.12
2022-09-12T09:01:11.188Z,213.75
2022-09-12T09:06:11.863Z,225.00
2022-09-12T09:11:12.537Z,236.25
2022-09-12T09:16:13.257Z,225.00
2022-09-12T09:21:13.902Z,106.88
2022-09-12T09:26:14.628Z,230.62
2022-09-12T09:31:22.425Z,253.12
2022-09-12T09:36:16.270Z,247.50
2022-09-12T09:41:17.119Z,270.00
2022-09-12T09:46:18.101Z,286.88
2022-09-12T09:51:18.654Z,140.62
2022-09-12T09:56:23.214Z,292.50
2022-09-12T10:01:20.448Z,286.88
2022-09-12T10:06:20.832Z,292.50
2022-09-12T10:11:21.806Z,264.38
2022-09-12T10:16:22.160Z,264.38
2022-09-12T10:21:22.904Z,90.00
2022-09-12T10:26:23.714Z,95.62
2022-09-12T10:31:24.365Z,270.00
2022-09-12T10:36:25.128Z,247.50
2022-09-12T10:41:25.990Z,281.25
2022-09-12T10:46:26.750Z,123.75
2022-09-12T10:51:27.502Z,146.25
2022-09-12T10:56:28.226Z,202.50
2022-09-12T11:01:28.995Z,303.75
2022-09-12T11:06:29.858Z,320.62
2022-09-12T11:11:30.638Z,309.38
2022-09-12T11:16:31.334Z,191.25
2022-09-12T11:21:32.315Z,140.62
2022-09-12T11:26:32.639Z,151.88
2022-09-12T11:31:33.529Z,168.75
2022-09-12T11:36:34.490Z,180.00
2022-09-12T11:41:34.980Z,191.25
2022-09-12T11:46:35.328Z,213.75
2022-09-12T11:51:36.140Z,309.38
2022-09-12T11:56:36.974Z,298.12
2022-09-12T12:01:42.877Z,309.38
2022-09-12T12:06:39.415Z,275.62
2022-09-12T12:11:39.609Z,286.88
2022-09-12T12:16:39.976Z,264.38
2022-09-12T12:21:40.641Z,253.12
2022-09-12T12:26:41.336Z,253.12
2022-09-12T12:31:42.038Z,275.62
2022-09-12T12:36:42.722Z,151.88
2022-09-12T12:41:43.353Z,135.00
2022-09-12T12:46:44.114Z,151.88
2022-09-12T12:51:44.817Z,236.25
2022-09-12T12:56:45.618Z,219.38
2022-09-12T13:01:46.367Z,230.62
2022-09-12T13:06:47.059Z,236.25
2022-09-12T13:11:47.781Z,219.38
2022-09-12T13:16:48.457Z,219.38
2022-09-12T13:21:49.123Z,202.50
2022-09-12T13:26:49.800Z,196.88
2022-09-12T13:31:50.470Z,157.50
2022-09-12T13:36:51.170Z,168.75
2022-09-12T13:41:51.870Z,174.38
2022-09-12T13:46:52.530Z,168.75
2022-09-12T13:51:53.224Z,168.75
2022-09-12T13:56:54.007Z,168.75
2022-09-12T14:01:54.694Z,168.75
2022-09-12T14:06:55.364Z,168.75
2022-09-12T14:11:56.087Z,168.75
2022-09-12T14:16:56.833Z,163.12
2022-09-12T14:21:57.509Z,157.50
2022-09-12T14:26:58.200Z,146.25
2022-09-12T14:31:58.914Z,140.62
2022-09-12T14:36:59.627Z,129.38
2022-09-12T14:42:00.384Z,123.75
2022-09-12T14:47:01.083Z,123.75
2022-09-12T14:52:01.764Z,118.12
2022-09-12T14:57:02.464Z,112.50
2022-09-12T15:02:03.246Z,106.88
2022-09-12T15:07:04.075Z,101.25
2022-09-12T15:12:05.500Z,95.62
2022-09-12T15:17:05.674Z,90.00
2022-09-12T15:22:06.352Z,90.00
2022-09-12T15:27:07.018Z,90.00
2022-09-12T15:32:14.843Z,84.38
2022-09-12T15:37:08.445Z,78.75
2022-09-12T15:42:10.115Z,73.12
2022-09-12T15:47:10.102Z,73.12
2022-09-12T15:52:10.844Z,67.50
2022-09-12T15:57:11.588Z,61.88
2022-09-12T16:02:12.225Z,61.88
2022-09-12T16:07:12.926Z,56.25
2022-09-12T16:12:13.701Z,50.62
2022-09-12T16:17:14.307Z,45.00
2022-09-12T16:22:15.074Z,39.38
2022-09-12T16:27:15.790Z,33.75
2022-09-12T16:32:16.848Z,33.75
2022-09-12T16:37:17.551Z,33.75
2022-09-12T16:42:18.211Z,28.12
2022-09-12T16:47:18.876Z,22.50
2022-09-12T16:52:19.605Z,16.88
2022-09-12T16:57:20.295Z,16.88
2022-09-12T17:02:21.092Z,11.25
2022-09-12T17:07:21.732Z,5.62
2022-09-12T17:12:22.408Z,5.62
2022-09-12T17:17:23.107Z,5.62
2022-09-12T17:22:23.786Z,0.00
2022-09-12T17:27:24.615Z,0.00
2022-09-12T17:32:25.199Z,0.00
2022-09-12T17:37:25.858Z,0.00
2022-09-12T17:42:27.675Z,0.00
2022-09-12T17:47:27.346Z,0.00
2022-09-12T17:52:28.000Z,0.00
2022-09-12T17:57:28.645Z,0.00
2022-09-12T18:02:33.058Z,0.00
2022-09-12T18:07:30.005Z,0.00
2022-09-12T18:12:30.783Z,0.00
2022-09-12T18:17:31.560Z,0.00
2022-09-12T18:22:32.266Z,0.00
2022-09-12T18:27:33.036Z,0.00
2022-09-12T18:32:33.968Z,0.00
2022-09-12T18:37:34.625Z,0.00
2022-09-12T18:42:35.393Z,0.00
2022-09-12T18:47:36.196Z,0.00
2022-09-12T18:52:37.315Z,0.00
2022-09-12T18:57:37.882Z,0.00
2022-09-12T19:02:38.119Z,0.00
2022-09-12T19:07:38.856Z,0.00
2022-09-12T19:12:39.557Z,0.00
2022-09-12T19:17:40.301Z,0.00
2022-09-12T19:22:41.143Z,0.00
2022-09-12T19:27:41.973Z,0.00
2022-09-12T19:32:42.765Z,0.00
2022-09-12T19:37:43.552Z,0.00
2022-09-12T19:42:44.316Z,0.00
2022-09-12T19:47:45.022Z,0.00
2022-09-12T19:52:45.781Z,0.00
2022-09-12T19:57:46.566Z,0.00
2022-09-12T20:02:47.378Z,0.00
2022-09-12T20:07:48.157Z,0.00
2022-09-12T20:12:48.876Z,0.00
2022-09-12T20:17:49.652Z,0.00
2022-09-12T20:22:50.390Z,0.00
2022-09-12T20:27:51.134Z,0.00
2022-09-12T20:32:51.966Z,0.00
2022-09-12T20:37:52.722Z,0.00
2022-09-12T20:42:53.659Z,0.00
2022-09-12T20:47:54.471Z,0.00
2022-09-12T20:52:55.187Z,0.00
2022-09-12T20:57:55.908Z,0.00
2022-09-12T21:02:56.688Z,0.00
2022-09-12T21:07:57.425Z,0.00
2022-09-12T21:12:58.184Z,0.00
2022-09-12T21:17:59.007Z,0.00
2022-09-12T21:22:59.800Z,0.00
2022-09-12T21:28:00.551Z,0.00
2022-09-12T21:33:01.312Z,0.00
2022-09-12T21:38:09.021Z,0.00
2022-09-12T21:43:02.712Z,0.00
2022-09-12T21:48:03.452Z,0.00
2022-09-12T21:53:04.201Z,0.00
2022-09-12T21:58:05.033Z,0.00
2022-09-12T22:03:05.741Z,0.00
2022-09-12T22:08:06.471Z,0.00
2022-09-12T22:13:07.184Z,0.00
2022-09-12T22:18:08.036Z,0.00
2022-09-12T22:23:08.697Z,0.00
2022-09-12T22:28:09.448Z,0.00
2022-09-12T22:33:10.177Z,0.00
2022-09-12T22:38:10.971Z,0.00
2022-09-12T22:43:11.659Z,0.00
2022-09-12T22:48:12.387Z,0.00
2022-09-12T22:53:13.136Z,0.00
2022-09-12T22:58:13.956Z,0.00
2022-09-12T23:03:14.653Z,0.00
2022-09-12T23:08:15.366Z,0.00
2022-09-12T23:13:16.106Z,0.00
2022-09-12T23:18:16.852Z,0.00
2022-09-12T23:23:17.587Z,0.00
2022-09-12T23:28:18.331Z,0.00
2022-09-12T23:33:19.070Z,0.00
2022-09-12T23:38:19.803Z,0.00
2022-09-12T23:43:20.543Z,0.00
2022-09-12T23:48:21.366Z,0.00
2022-09-12T23:53:22.042Z,0.00
2022-09-12T23:58:22.803Z,0.00
